createdAt,value
2022-12-24T00:00:29.611Z,10.40
2022-12-24T00:05:32.557Z,10.38
2022-12-24T00:10:35.463Z,10.41
2022-12-24T00:15:39.699Z,10.41
2022-12-24T00:20:43.116Z,10.46
2022-12-24T00:25:46.641Z,10.40
2022-12-24T00:30:50.901Z,10.40
2022-12-24T00:35:54.224Z,10.40
2022-12-24T00:41:00.698Z,10.37
2022-12-24T00:46:05.248Z,10.40
2022-12-24T00:51:08.350Z,10.49
2022-12-24T00:56:11.856Z,10.41
2022-12-24T01:01:16.942Z,10.31
2022-12-24T01:06:21.979Z,10.33
2022-12-24T01:11:24.854Z,10.30
2022-12-24T01:16:29.262Z,10.26
2022-12-24T01:21:32.249Z,10.25
2022-12-24T01:26:35.160Z,10.33
2022-12-24T01:31:39.755Z,10.33
2022-12-24T01:36:42.707Z,10.36
2022-12-24T01:42:02.928Z,10.43
2022-12-24T01:47:12.457Z,10.40
2022-12-24T01:52:21.083Z,10.40
2022-12-24T01:57:28.488Z,10.30
2022-12-24T02:02:34.182Z,10.21
2022-12-24T02:07:38.426Z,10.00
2022-12-24T02:12:43.298Z,9.99
2022-12-24T02:17:56.660Z,10.12
2022-12-24T02:23:32.037Z,10.25
2022-12-24T02:28:47.644Z,10.30
2022-12-24T02:33:58.627Z,10.22
2022-12-24T02:39:05.102Z,10.12
2022-12-24T02:44:08.349Z,10.11
2022-12-24T02:49:13.516Z,10.12
2022-12-24T02:54:16.752Z,10.02
2022-12-24T02:59:35.938Z,10.01
2022-12-24T03:04:49.789Z,10.03
2022-12-24T03:10:03.496Z,10.06
2022-12-24T03:15:09.099Z,10.03
2022-12-24T03:20:17.653Z,10.04
2022-12-24T03:25:25.233Z,10.04
2022-12-24T03:30:28.352Z,9.97
2022-12-24T03:35:32.621Z,9.96
2022-12-24T03:40:35.553Z,9.99
2022-12-24T03:45:38.536Z,9.98
2022-12-24T03:50:42.834Z,9.91
2022-12-24T03:55:45.787Z,9.88
2022-12-24T04:00:48.742Z,9.98
2022-12-24T04:06:02.745Z,10.01
2022-12-24T04:11:09.709Z,10.07
2022-12-24T04:16:14.966Z,10.14
2022-12-24T04:21:19.590Z,10.18
2022-12-24T04:26:22.554Z,10.12
2022-12-24T04:31:25.514Z,10.18
2022-12-24T04:36:29.959Z,10.22
2022-12-24T04:41:33.527Z,10.21
2022-12-24T04:46:36.557Z,10.22
2022-12-24T04:51:40.792Z,10.22
2022-12-24T04:56:43.716Z,10.07
2022-12-24T05:01:46.663Z,10.12
2022-12-24T05:06:51.012Z,10.03
2022-12-24T05:11:53.903Z,10.11
2022-12-24T05:16:56.846Z,10.08
2022-12-24T05:22:18.985Z,10.04
2022-12-24T05:27:22.129Z,10.03
2022-12-24T05:32:25.042Z,9.93
2022-12-24T05:37:29.320Z,9.76
2022-12-24T05:42:32.329Z,9.72
2022-12-24T05:47:41.269Z,9.71
2022-12-24T05:52:47.470Z,9.70
2022-12-24T05:57:50.361Z,9.61
2022-12-24T06:02:53.368Z,9.49
2022-12-24T06:07:57.648Z,9.52
2022-12-24T06:13:00.601Z,9.51
2022-12-24T06:18:03.488Z,9.39
2022-12-24T06:23:07.740Z,9.35
2022-12-24T06:28:10.605Z,9.29
2022-12-24T06:33:13.511Z,9.39
2022-12-24T06:38:17.833Z,9.37
2022-12-24T06:43:20.921Z,9.32
2022-12-24T06:48:23.820Z,9.50
2022-12-24T06:53:28.039Z,9.53
2022-12-24T06:58:31.201Z,9.55
2022-12-24T07:03:34.631Z,9.59
2022-12-24T07:08:38.957Z,9.57
2022-12-24T07:13:42.179Z,9.52
2022-12-24T07:18:45.785Z,9.57
2022-12-24T07:23:50.059Z,9.48
2022-12-24T07:28:52.980Z,9.45
2022-12-24T07:33:55.933Z,9.49
2022-12-24T07:39:00.242Z,9.45
2022-12-24T07:44:03.236Z,9.42
2022-12-24T07:49:06.182Z,9.44
2022-12-24T07:54:10.532Z,9.47
2022-12-24T07:59:14.120Z,9.57
2022-12-24T08:04:17.033Z,9.42
2022-12-24T08:09:21.318Z,9.46
2022-12-24T08:14:24.323Z,9.40
2022-12-24T08:19:27.260Z,9.42
2022-12-24T08:24:31.686Z,9.45
2022-12-24T08:29:34.667Z,9.58
2022-12-24T08:34:37.580Z,9.61
2022-12-24T08:39:41.852Z,9.61
2022-12-24T08:44:44.945Z,9.62
2022-12-24T08:49:47.906Z,9.68
2022-12-24T08:54:52.603Z,9.83
2022-12-24T08:59:55.710Z,9.80
2022-12-24T09:04:58.604Z,9.94
2022-12-24T09:10:03.137Z,10.07
2022-12-24T09:15:08.234Z,10.23
2022-12-24T09:20:12.022Z,10.15
2022-12-24T09:25:16.361Z,10.32
2022-12-24T09:30:19.414Z,10.26
2022-12-24T09:35:22.357Z,10.36
2022-12-24T09:40:34.147Z,10.19
2022-12-24T09:45:42.820Z,10.24
2022-12-24T09:50:53.113Z,10.26
2022-12-24T09:56:00.128Z,10.21
2022-12-24T10:01:03.197Z,10.16
2022-12-24T10:06:12.080Z,10.14
2022-12-24T10:11:20.619Z,10.02
2022-12-24T10:16:30.117Z,10.19
2022-12-24T10:21:43.851Z,10.21
2022-12-24T10:26:54.576Z,10.24
2022-12-24T10:32:02.281Z,10.12
2022-12-24T10:37:05.865Z,10.14
2022-12-24T10:42:12.519Z,10.19
2022-12-24T10:47:16.054Z,10.16
2022-12-24T10:52:22.704Z,10.22
2022-12-24T10:57:28.045Z,10.30
2022-12-24T11:02:33.831Z,10.32
2022-12-24T11:07:36.978Z,10.36
2022-12-24T11:13:00.613Z,10.22
2022-12-24T11:18:16.180Z,10.22
2022-12-24T11:23:19.243Z,10.30
2022-12-24T11:28:25.577Z,10.19
2022-12-24T11:33:28.833Z,9.98
2022-12-24T11:38:33.812Z,9.94
2022-12-24T11:43:47.161Z,9.95
2022-12-24T11:49:08.341Z,10.06
2022-12-24T11:54:18.364Z,10.17
2022-12-24T11:59:31.589Z,10.30
2022-12-24T12:04:37.585Z,10.45
2022-12-24T12:09:44.537Z,10.42
2022-12-24T12:14:53.293Z,10.48
2022-12-24T12:20:01.298Z,10.57
2022-12-24T12:25:06.851Z,10.66
2022-12-24T12:30:18.681Z,10.66
2022-12-24T12:35:26.651Z,10.52
2022-12-24T12:40:56.436Z,10.42
2022-12-24T12:46:08.408Z,10.48
2022-12-24T12:51:20.519Z,10.50
2022-12-24T12:56:31.376Z,10.71
2022-12-24T13:01:44.414Z,10.91
2022-12-24T13:07:06.663Z,10.90
2022-12-24T13:12:40.789Z,10.76
2022-12-24T13:18:16.402Z,10.79
2022-12-24T13:23:23.544Z,10.67
2022-12-24T13:28:38.684Z,10.57
2022-12-24T13:33:49.675Z,10.64
2022-12-24T13:38:57.064Z,10.59
2022-12-24T13:44:04.585Z,10.70
2022-12-24T13:49:13.207Z,10.67
2022-12-24T13:54:21.041Z,10.62
2022-12-24T13:59:38.655Z,10.50
2022-12-24T14:04:42.567Z,10.44
2022-12-24T14:09:50.879Z,10.40
2022-12-24T14:14:53.823Z,10.35
2022-12-24T14:19:59.756Z,10.35
2022-12-24T14:25:14.644Z,10.31
2022-12-24T14:30:20.699Z,10.14
2022-12-24T14:35:27.393Z,10.09
2022-12-24T14:40:34.384Z,10.07
2022-12-24T14:45:46.209Z,10.04
2022-12-24T14:51:07.981Z,9.88
2022-12-24T14:56:15.469Z,9.90
2022-12-24T15:01:24.978Z,9.93
2022-12-24T15:06:29.296Z,9.98
2022-12-24T15:11:33.895Z,9.85
2022-12-24T15:16:37.937Z,9.77
2022-12-24T15:21:44.266Z,9.83
2022-12-24T15:26:48.615Z,9.75
2022-12-24T15:31:55.393Z,9.78
2022-12-24T15:37:07.755Z,9.81
2022-12-24T15:42:18.987Z,9.65
2022-12-24T15:47:27.635Z,9.67
2022-12-24T15:52:31.085Z,9.49
2022-12-24T15:57:35.845Z,9.53
2022-12-24T16:02:41.445Z,9.54
2022-12-24T16:08:10.232Z,9.50
2022-12-24T16:13:19.614Z,9.44
2022-12-24T16:18:27.903Z,9.29
2022-12-24T16:23:38.281Z,9.34
2022-12-24T16:28:42.730Z,9.12
2022-12-24T16:33:46.191Z,9.24
2022-12-24T16:39:06.323Z,9.06
2022-12-24T16:44:10.590Z,8.93
2022-12-24T16:49:17.626Z,8.83
2022-12-24T16:54:20.543Z,8.72
2022-12-24T16:59:26.418Z,8.62
2022-12-24T17:04:29.375Z,8.61
2022-12-24T17:09:32.742Z,8.52
2022-12-24T17:14:38.893Z,8.38
2022-12-24T17:19:42.051Z,8.11
2022-12-24T17:24:45.214Z,8.02
2022-12-24T17:29:49.512Z,8.06
2022-12-24T17:34:52.481Z,7.90
2022-12-24T17:39:55.832Z,7.86
2022-12-24T17:45:00.117Z,7.83
2022-12-24T17:50:03.058Z,7.48
2022-12-24T17:55:07.216Z,7.41
2022-12-24T18:00:12.981Z,7.48
2022-12-24T18:05:16.258Z,7.29
2022-12-24T18:10:19.582Z,7.51
2022-12-24T18:15:24.109Z,7.29
2022-12-24T18:20:27.398Z,7.71
2022-12-24T18:25:30.385Z,7.83
2022-12-24T18:30:34.740Z,7.84
2022-12-24T18:35:37.677Z,8.00
2022-12-24T18:40:40.576Z,8.04
2022-12-24T18:45:46.139Z,8.00
2022-12-24T18:50:55.774Z,8.04
2022-12-24T18:56:04.200Z,8.07
2022-12-24T19:01:14.039Z,7.98
2022-12-24T19:06:17.588Z,8.02
2022-12-24T19:11:22.164Z,7.85
2022-12-24T19:16:27.200Z,7.88
2022-12-24T19:21:30.219Z,7.92
2022-12-24T19:26:33.168Z,7.87
2022-12-24T19:31:37.535Z,7.85
2022-12-24T19:36:40.561Z,7.84
2022-12-24T19:41:43.482Z,7.68
2022-12-24T19:46:47.745Z,7.60
2022-12-24T19:51:50.648Z,7.59
2022-12-24T19:56:53.555Z,7.68
2022-12-24T20:01:57.892Z,7.54
2022-12-24T20:07:01.117Z,7.58
2022-12-24T20:12:04.802Z,7.84
2022-12-24T20:17:09.283Z,7.78
2022-12-24T20:22:12.366Z,7.83
2022-12-24T20:27:15.325Z,7.85
2022-12-24T20:32:21.443Z,7.64
2022-12-24T20:37:25.943Z,7.67
2022-12-24T20:42:28.812Z,7.71
2022-12-24T20:47:33.468Z,7.80
2022-12-24T20:52:36.413Z,7.84
2022-12-24T20:57:39.350Z,7.77
2022-12-24T21:02:44.185Z,7.64
2022-12-24T21:07:47.990Z,7.53
2022-12-24T21:12:56.752Z,7.62
2022-12-24T21:18:01.644Z,7.47
2022-12-24T21:23:04.557Z,7.59
2022-12-24T21:28:07.554Z,7.55
2022-12-24T21:33:12.032Z,7.40
2022-12-24T21:38:15.046Z,7.36
2022-12-24T21:43:17.936Z,7.27
2022-12-24T21:48:40.030Z,7.31
2022-12-24T21:54:00.576Z,7.44
2022-12-24T21:59:03.497Z,7.49
2022-12-24T22:04:07.807Z,7.38
2022-12-24T22:09:29.449Z,7.41
2022-12-24T22:14:33.083Z,7.35
2022-12-24T22:19:38.682Z,7.35
2022-12-24T22:24:41.653Z,7.35
2022-12-24T22:29:44.618Z,7.36
2022-12-24T22:34:49.434Z,7.20
2022-12-24T22:39:52.318Z,7.07
2022-12-24T22:44:55.241Z,7.16
2022-12-24T22:50:00.054Z,7.11
2022-12-24T22:55:03.604Z,7.17
2022-12-24T23:00:12.337Z,7.13
2022-12-24T23:05:18.623Z,7.06
2022-12-24T23:10:21.569Z,7.14
2022-12-24T23:15:24.499Z,7.00
2022-12-24T23:20:28.752Z,6.99
2022-12-24T23:25:31.690Z,6.95
2022-12-24T23:30:34.625Z,6.80
2022-12-24T23:35:38.938Z,7.01
2022-12-24T23:40:42.886Z,6.79
2022-12-24T23:45:49.339Z,6.94
2022-12-24T23:51:03.559Z,7.02
2022-12-24T23:56:07.366Z,7.11
